Time;durP1;ratioP1;P1;durP2;ratioP2;P2;SDS_P1;SDS_P2;PMS_P1;PMS_P2;Temp;Humidity;BMP_temperature;BMP_pressure;BME280_temperature;BME280_humidity;BME280_pressure;Samples;Min_cycle;Max_cycle;Signal;HPM_P1;HPM_P2
2023/03/26 00:00:55;;;;;;;3.05;0.88;;;8.00;99.90;;;;;;4985512;28;20041;-75
2023/03/26 00:03:21;;;;;;;2.80;0.90;;;7.90;99.90;;;;;;4973115;28;20058;-75
2023/03/26 00:05:47;;;;;;;3.80;0.90;;;7.90;99.90;;;;;;4985736;28;20094;-74
2023/03/26 00:08:14;;;;;;;5.60;1.05;;;7.90;99.90;;;;;;4984919;28;20034;-75
2023/03/26 00:10:42;;;;;;;3.45;0.80;;;7.90;99.90;;;;;;4977084;28;20305;-76
2023/03/26 00:13:09;;;;;;;2.78;0.82;;;7.80;99.90;;;;;;4984966;28;20034;-75
2023/03/26 00:15:35;;;;;;;7.88;1.05;;;7.80;99.90;;;;;;4984509;28;20340;-75
2023/03/26 00:18:01;;;;;;;3.28;0.60;;;7.80;99.90;;;;;;4985430;28;20098;-75
2023/03/26 00:20:31;;;;;;;6.47;0.88;;;7.80;99.90;;;;;;4984563;28;20278;-74
2023/03/26 00:23:00;;;;;;;3.67;1.10;;;7.80;99.90;;;;;;4985104;28;20106;-76
2023/03/26 00:25:26;;;;;;;2.05;0.65;;;7.90;99.90;;;;;;4982004;28;20038;-75
2023/03/26 00:27:52;;;;;;;4.13;0.98;;;7.90;99.90;;;;;;4976308;28;20031;-74
2023/03/26 00:30:19;;;;;;;3.55;0.90;;;7.90;99.90;;;;;;4984373;28;20363;-74
2023/03/26 00:32:45;;;;;;;3.63;0.90;;;7.90;99.90;;;;;;4983865;28;20023;-75
2023/03/26 00:35:11;;;;;;;4.35;0.90;;;8.00;99.90;;;;;;4984638;28;20041;-74
2023/03/26 00:37:41;;;;;;;4.85;0.80;;;7.90;99.90;;;;;;4974885;28;20042;-74
2023/03/26 00:40:09;;;;;;;4.15;0.80;;;7.90;99.90;;;;;;4979882;28;20081;-74
2023/03/26 00:42:36;;;;;;;3.13;0.70;;;7.80;99.90;;;;;;4970376;28;20034;-74
2023/03/26 00:45:04;;;;;;;2.92;0.68;;;7.80;99.90;;;;;;4980789;28;20051;-74
2023/03/26 00:47:30;;;;;;;3.67;1.02;;;7.80;99.90;;;;;;4985031;28;20085;-75
2023/03/26 00:49:56;;;;;;;5.93;0.80;;;7.70;99.90;;;;;;4984736;28;20221;-74
2023/03/26 00:52:22;;;;;;;3.95;0.90;;;7.80;99.90;;;;;;4984421;28;20038;-74
2023/03/26 00:54:51;;;;;;;5.35;1.15;;;7.80;99.90;;;;;;4984608;28;20091;-75
2023/03/26 00:57:17;;;;;;;;;;;7.80;99.90;;;;;;4984482;28;20022;-75
2023/03/26 00:59:43;;;;;;;4.28;0.90;;;7.90;99.90;;;;;;4984592;28;19906;-75
2023/03/26 05:03:05;;;;;;;4.75;1.20;;;8.40;99.90;;;;;;5205598;23;20042;-75
2023/03/26 05:05:31;;;;;;;3.90;1.00;;;8.40;99.90;;;;;;4983697;28;20093;-75
2023/03/26 05:07:58;;;;;;;5.40;1.23;;;8.30;99.90;;;;;;4982798;28;20045;-74
2023/03/26 05:10:24;;;;;;;5.35;1.27;;;8.30;99.90;;;;;;4957347;28;20447;-74
2023/03/26 05:12:56;;;;;;;8.35;1.50;;;8.30;99.90;;;;;;4979872;28;20094;-75
2023/03/26 05:15:25;;;;;;;7.30;1.65;;;8.30;99.90;;;;;;4979475;28;20039;-75
2023/03/26 05:18:07;;;;;;;5.18;1.10;;;8.20;99.90;;;;;;4982291;28;20035;-75
2023/03/26 05:20:38;;;;;;;6.28;1.17;;;8.20;99.90;;;;;;4954361;28;20058;-75
2023/03/26 05:23:06;;;;;;;6.88;1.52;;;8.20;99.90;;;;;;4966314;28;20038;-74
2023/03/26 05:25:35;;;;;;;8.98;1.73;;;8.20;99.90;;;;;;4982223;28;20074;-75
2023/03/26 05:28:02;;;;;;;5.77;0.80;;;8.20;99.90;;;;;;4966987;28;20034;-75
2023/03/26 05:30:38;;;;;;;5.53;1.15;;;8.20;99.90;;;;;;4965931;28;20035;-74
2023/03/26 05:33:05;;;;;;;4.90;1.98;;;8.20;99.90;;;;;;4966653;28;20026;-74
2023/03/26 05:35:42;;;;;;;7.70;1.20;;;8.30;99.90;;;;;;4959539;28;20340;-75
2023/03/26 05:38:08;;;;;;;3.95;1.00;;;8.30;99.90;;;;;;4996094;28;20022;-75
2023/03/26 05:40:34;;;;;;;5.85;1.30;;;8.40;99.90;;;;;;4950389;28;20050;-75
2023/03/26 05:43:02;;;;;;;3.88;1.17;;;8.40;99.90;;;;;;4966275;28;20328;-74
2023/03/26 05:45:37;;;;;;;4.05;1.20;;;8.40;99.90;;;;;;4966161;28;20034;-75
2023/03/26 05:48:29;;;;;;;4.57;1.30;;;8.50;99.90;;;;;;4980732;28;20058;-75
2023/03/26 05:50:56;;;;;;;5.70;1.30;;;8.50;99.90;;;;;;4966376;28;20034;-75
2023/03/26 05:53:25;;;;;;;4.78;1.10;;;8.60;99.90;;;;;;4965824;28;20041;-74
2023/03/26 05:56:09;;;;;;;4.93;1.20;;;8.50;99.90;;;;;;4983406;28;20033;-76
2023/03/26 05:58:55;;;;;;;4.85;1.17;;;8.60;99.90;;;;;;4983172;28;20101;-75
2023/03/26 06:01:44;;;;;;;3.38;0.90;;;8.70;99.90;;;;;;4963751;28;20344;-75
2023/03/26 06:04:19;;;;;;;7.95;0.95;;;8.80;99.90;;;;;;4970239;28;20039;-74
2023/03/26 06:07:17;;;;;;;6.25;1.10;;;8.90;99.90;;;;;;4983229;28;20042;-75
2023/03/26 06:09:49;;;;;;;3.42;0.80;;;9.10;99.90;;;;;;4974887;28;20039;-76
2023/03/26 06:12:16;;;;;;;3.78;0.57;;;9.20;99.90;;;;;;4958815;28;20039;-75
2023/03/26 06:14:42;;;;;;;5.10;1.10;;;9.20;99.90;;;;;;4981669;28;20038;-75
2023/03/26 06:17:15;;;;;;;5.28;0.93;;;9.20;99.90;;;;;;4982046;28;20031;-75
2023/03/26 06:20:01;;;;;;;6.95;1.10;;;9.20;99.90;;;;;;4982182;28;20189;-74
2023/03/26 06:22:35;;;;;;;6.68;1.00;;;9.10;99.90;;;;;;4980331;28;20030;-75
2023/03/26 06:25:26;;;;;;;6.82;1.83;;;9.00;99.90;;;;;;4966510;28;20050;-75
2023/03/26 06:28:18;;;;;;;7.85;1.30;;;8.90;99.90;;;;;;4967558;28;20077;-75
2023/03/26 06:30:59;;;;;;;5.47;1.23;;;8.80;99.90;;;;;;4982192;28;20035;-75
2023/03/26 06:33:31;;;;;;;4.82;1.27;;;8.70;99.90;;;;;;4981770;28;20038;-75
2023/03/26 06:35:58;;;;;;;4.72;1.10;;;8.70;99.90;;;;;;4981960;28;20035;-75
2023/03/26 06:38:24;;;;;;;4.70;1.08;;;8.70;99.90;;;;;;4981917;28;20037;-76
2023/03/26 06:40:50;;;;;;;4.78;1.45;;;8.80;99.90;;;;;;4982505;28;20118;-74
2023/03/26 06:43:25;;;;;;;4.07;0.93;;;8.80;99.90;;;;;;4982139;28;20031;-74
2023/03/26 06:46:11;;;;;;;5.18;1.00;;;8.90;99.90;;;;;;4982003;28;20026;-74
2023/03/26 06:48:37;;;;;;;4.38;0.95;;;9.00;99.90;;;;;;4982464;28;20038;-73
2023/03/26 06:51:21;;;;;;;4.18;0.80;;;9.00;99.90;;;;;;4982838;28;20033;-73
2023/03/26 06:54:05;;;;;;;7.47;0.93;;;9.10;99.90;;;;;;4982834;28;20045;-73
2023/03/26 06:56:49;;;;;;;4.93;1.25;;;9.10;99.90;;;;;;4982305;28;20065;-72
2023/03/26 06:59:33;;;;;;;4.95;1.10;;;9.20;99.90;;;;;;4957110;28;20095;-74
2023/03/26 07:02:18;;;;;;;4.60;0.73;;;9.20;99.90;;;;;;4982468;28;20061;-74
2023/03/26 07:05:02;;;;;;;6.47;1.58;;;9.20;99.90;;;;;;4982923;28;20073;-73
2023/03/26 07:07:46;;;;;;;5.03;0.80;;;9.20;99.90;;;;;;4982336;28;20081;-73
2023/03/26 07:10:21;;;;;;;3.58;0.98;;;9.20;99.90;;;;;;4970503;28;20023;-73
2023/03/26 07:13:06;;;;;;;7.20;1.10;;;9.20;99.90;;;;;;4981730;28;20355;-72
2023/03/26 07:16:07;;;;;;;7.10;1.10;;;9.20;99.90;;;;;;4982630;28;20039;-74
2023/03/26 07:18:49;;;;;;;5.15;0.95;;;9.20;99.90;;;;;;4980879;28;20030;-75
2023/03/26 07:21:20;;;;;;;6.55;1.23;;;9.30;99.90;;;;;;4981569;28;20268;-75
2023/03/26 07:23:47;;;;;;;3.47;0.95;;;9.40;99.90;;;;;;4981221;28;20041;-74
2023/03/26 07:26:33;;;;;;;2.80;1.00;;;9.30;99.90;;;;;;4986291;28;20034;-76
2023/03/26 07:29:36;;;;;;;10.10;1.75;;;9.30;99.90;;;;;;4984174;28;20193;-75
2023/03/26 07:32:31;;;;;;;4.53;1.33;;;9.10;99.90;;;;;;4986276;28;20029;-75
2023/03/26 07:35:39;;;;;;;3.90;1.02;;;9.10;99.90;;;;;;4985053;28;20045;-76
2023/03/26 07:38:48;;;;;;;4.80;1.25;;;8.90;99.90;;;;;;4979820;28;20020;-75
2023/03/26 07:41:54;;;;;;;6.88;1.52;;;8.90;99.90;;;;;;4961766;28;20043;-75
2023/03/26 07:45:13;;;;;;;6.55;2.03;;;8.80;99.90;;;;;;4966050;28;20245;-75
2023/03/26 07:48:03;;;;;;;6.47;1.33;;;8.70;99.90;;;;;;4984457;28;20041;-75
2023/03/26 07:50:48;;;;;;;7.10;1.33;;;8.70;99.90;;;;;;4984705;28;20076;-78
2023/03/26 07:53:29;;;;;;;6.30;1.98;;;8.70;99.90;;;;;;4982927;28;20050;-77
2023/03/26 07:56:14;;;;;;;5.63;1.85;;;8.80;99.90;;;;;;4968396;28;20035;-75
2023/03/26 07:58:56;;;;;;;5.65;1.33;;;8.80;99.90;;;;;;4970367;28;20019;-75
2023/03/26 08:02:07;;;;;;;6.70;1.70;;;8.80;99.90;;;;;;4983940;28;20062;-75
2023/03/26 08:05:18;;;;;;;3.67;1.83;;;8.80;99.90;;;;;;4981947;28;20026;-75
2023/03/26 08:08:34;;;;;;;9.20;2.30;;;8.80;99.90;;;;;;4984578;28;20371;-72
2023/03/26 08:11:52;;;;;;;8.73;1.80;;;8.80;99.90;;;;;;4968859;28;20042;-76
2023/03/26 08:14:18;;;;;;;7.88;1.50;;;8.80;99.90;;;;;;4985524;28;20038;-76
2023/03/26 08:17:04;;;;;;;5.80;1.58;;;8.80;99.90;;;;;;4984619;28;20102;-76
2023/03/26 08:19:49;;;;;;;7.43;2.08;;;8.70;99.90;;;;;;4945547;28;20046;-75
2023/03/26 08:22:49;;;;;;;4.03;1.20;;;8.70;99.90;;;;;;4985248;28;20190;-74
2023/03/26 08:25:32;;;;;;;7.65;1.63;;;8.60;99.90;;;;;;4971045;28;20051;-75
2023/03/26 08:28:32;;;;;;;6.03;1.50;;;8.70;99.90;;;;;;4984056;28;20087;-76
2023/03/26 08:31:01;;;;;;;5.60;1.60;;;8.60;99.90;;;;;;4985268;28;20035;-75
2023/03/26 08:33:28;;;;;;;4.95;1.48;;;8.70;99.90;;;;;;4984890;28;20041;-77
2023/03/26 08:35:54;;;;;;;5.40;1.58;;;8.70;99.90;;;;;;4984029;28;20046;-74
2023/03/26 08:38:20;;;;;;;5.55;1.80;;;8.70;99.90;;;;;;4984709;28;20046;-74
2023/03/26 08:41:10;;;;;;;6.10;1.60;;;8.60;99.90;;;;;;4984283;28;20225;-75
2023/03/26 08:44:04;;;;;;;8.23;2.42;;;8.60;99.90;;;;;;4983423;28;20035;-75
2023/03/26 08:46:59;;;;;;;7.32;1.80;;;8.70;99.90;;;;;;4986068;28;20093;-76
2023/03/26 08:50:03;;;;;;;6.28;1.27;;;8.70;99.90;;;;;;4983892;28;20107;-75
2023/03/26 08:53:00;;;;;;;5.53;1.30;;;8.80;99.90;;;;;;4985093;28;20212;-73
2023/03/26 08:56:10;;;;;;;5.35;1.40;;;8.90;99.90;;;;;;4983736;28;20141;-75
2023/03/26 08:59:18;;;;;;;6.03;1.60;;;9.00;99.90;;;;;;4978105;28;20027;-74
2023/03/26 09:02:09;;;;;;;6.77;1.50;;;9.20;99.90;;;;;;4983898;28;20333;-74
2023/03/26 09:05:13;;;;;;;8.35;1.60;;;9.40;99.90;;;;;;4983934;28;20046;-75
2023/03/26 09:07:58;;;;;;;2.50;1.10;;;9.60;99.90;;;;;;4984128;28;20037;-73
2023/03/26 09:10:42;;;;;;;7.38;1.45;;;9.80;99.90;;;;;;4975049;28;20276;-73
2023/03/26 09:13:36;;;;;;;4.75;1.30;;;10.00;99.90;;;;;;4970515;28;20038;-77
2023/03/26 09:16:26;;;;;;;3.90;0.90;;;10.40;99.90;;;;;;4979798;28;20046;-77
2023/03/26 09:19:25;;;;;;;4.28;0.90;;;10.90;99.90;;;;;;4982392;28;20296;-72
2023/03/26 09:22:02;;;;;;;4.30;0.82;;;11.10;99.90;;;;;;4971172;28;20074;-73
2023/03/26 09:25:07;;;;;;;8.77;1.37;;;11.00;99.90;;;;;;4984182;28;20291;-73
2023/03/26 09:28:08;;;;;;;4.43;1.00;;;10.90;99.90;;;;;;4982931;28;20503;-73
2023/03/26 09:30:53;;;;;;;3.72;1.00;;;11.20;99.90;;;;;;4932980;28;20046;-75
2023/03/26 09:33:31;;;;;;;1.85;0.73;;;11.20;99.90;;;;;;4970615;28;20182;-75
2023/03/26 09:35:59;;;;;;;3.42;0.80;;;11.30;99.90;;;;;;4967745;28;20265;-74
2023/03/26 09:38:43;;;;;;;2.45;0.80;;;11.40;99.90;;;;;;4977738;28;20245;-76
2023/03/26 09:41:11;;;;;;;2.22;0.70;;;11.70;99.90;;;;;;4975802;28;20066;-75
2023/03/26 09:43:53;;;;;;;2.20;0.60;;;12.20;99.90;;;;;;4978583;28;20027;-74
2023/03/26 09:46:18;;;;;;;2.90;0.70;;;12.50;99.90;;;;;;4983844;28;20042;-75
2023/03/26 09:49:10;;;;;;;4.90;0.60;;;13.00;99.90;;;;;;4982532;28;20035;-75
2023/03/26 09:52:07;;;;;;;4.00;0.65;;;13.20;99.90;;;;;;4921972;29;20059;-78
2023/03/26 09:55:08;;;;;;;4.70;1.02;;;13.50;99.90;;;;;;4937847;29;20208;-75
2023/03/26 09:57:44;;;;;;;;;;;13.90;99.90;;;;;;4921076;29;20094;-75
2023/03/26 10:00:27;;;;;;;1.50;0.40;;;14.20;99.70;;;;;;4963023;29;19942;-76
2023/03/26 10:03:25;;;;;;;1.73;0.50;;;14.10;99.90;;;;;;4963715;29;20051;-76
2023/03/26 10:06:10;;;;;;;;;;;14.10;99.20;;;;;;4964436;29;20055;-74
2023/03/26 10:09:04;;;;;;;1.90;0.50;;;14.20;99.00;;;;;;4961866;28;19994;-75
2023/03/26 10:11:47;;;;;;;1.73;0.50;;;14.50;98.20;;;;;;4950071;29;20221;-76
2023/03/26 10:14:31;;;;;;;2.25;0.60;;;14.50;97.70;;;;;;4964154;29;20039;-75
2023/03/26 10:17:25;;;;;;;1.92;0.52;;;14.10;98.20;;;;;;4938871;29;20538;-74
2023/03/26 10:20:25;;;;;;;2.25;0.60;;;14.10;98.50;;;;;;4962329;29;20057;-77
2023/03/26 10:23:13;;;;;;;2.25;0.65;;;13.90;98.10;;;;;;4946241;29;20035;-75
2023/03/26 10:26:03;;;;;;;4.32;0.70;;;13.90;97.60;;;;;;4963625;29;20027;-75
2023/03/26 10:28:51;;;;;;;1.88;0.57;;;14.10;97.20;;;;;;4963854;29;20031;-77
2023/03/26 10:31:39;;;;;;;;;;;13.90;96.60;;;;;;4964262;29;20051;-73
2023/03/26 10:34:37;;;;;;;2.88;0.60;;;13.50;97.00;;;;;;4947131;28;19978;-75
2023/03/26 10:37:15;;;;;;;2.45;0.50;;;13.20;97.40;;;;;;4960809;29;20061;-78
2023/03/26 10:40:04;;;;;;;1.80;0.52;;;13.10;97.80;;;;;;4962115;29;20058;-77
2023/03/26 10:42:44;;;;;;;2.60;0.47;;;13.20;98.10;;;;;;4939803;29;20035;-77
2023/03/26 10:45:43;;;;;;;1.73;0.40;;;13.30;96.60;;;;;;4963960;29;20094;-79
2023/03/26 10:48:35;;;;;;;1.52;0.43;;;13.30;96.60;;;;;;4964051;29;20102;-73
2023/03/26 10:51:35;;;;;;;1.92;0.30;;;13.40;94.00;;;;;;4946375;29;20039;-75
2023/03/26 10:54:08;;;;;;;1.70;0.40;;;13.60;92.70;;;;;;4963702;29;20110;-78
2023/03/26 10:56:45;;;;;;;2.63;0.40;;;14.00;91.80;;;;;;4943970;29;20312;-75
2023/03/26 10:59:14;;;;;;;1.60;0.40;;;14.30;90.50;;;;;;4964865;28;20031;-75
2023/03/26 11:01:40;;;;;;;3.15;0.50;;;14.60;89.60;;;;;;4949973;29;20055;-75
2023/03/26 11:04:22;;;;;;;2.45;0.30;;;14.50;89.20;;;;;;4966394;29;20082;-77
2023/03/26 11:07:12;;;;;;;2.60;0.40;;;14.80;87.50;;;;;;4967169;29;20038;-76
2023/03/26 11:09:53;;;;;;;2.67;0.47;;;15.20;86.70;;;;;;4945395;29;20371;-77
2023/03/26 11:12:35;;;;;;;2.00;0.40;;;15.70;84.00;;;;;;4959621;28;20027;-79
2023/03/26 11:15:34;;;;;;;1.42;0.40;;;16.10;83.30;;;;;;4969026;28;20085;-77
2023/03/26 11:18:12;;;;;;;1.75;0.30;;;16.60;80.00;;;;;;4951506;29;20325;-80
2023/03/26 11:21:08;;;;;;;1.48;0.30;;;16.40;79.90;;;;;;4955924;29;20027;-76
2023/03/26 11:24:11;;;;;;;2.20;0.40;;;16.80;78.70;;;;;;4966335;29;20253;-77
2023/03/26 11:26:48;;;;;;;2.15;0.32;;;17.30;76.00;;;;;;4955516;29;20063;-75
2023/03/26 11:29:41;;;;;;;2.60;0.30;;;17.60;75.20;;;;;;4949798;29;20107;-77
2023/03/26 11:32:12;;;;;;;2.00;0.43;;;17.50;74.60;;;;;;4946200;29;20057;-75
2023/03/26 11:35:07;;;;;;;1.00;0.28;;;18.00;74.20;;;;;;4945486;29;20028;-78
2023/03/26 11:37:45;;;;;;;1.45;0.28;;;18.20;73.40;;;;;;4966855;29;20043;-75
2023/03/26 11:40:20;;;;;;;;;;;18.50;73.30;;;;;;4965855;29;20035;-77
2023/03/26 11:42:48;;;;;;;1.17;0.30;;;19.70;71.10;;;;;;4959460;29;19910;-76
2023/03/26 11:45:21;;;;;;;1.30;0.30;;;20.60;70.40;;;;;;4966523;29;20055;-77
2023/03/26 11:47:54;;;;;;;1.88;0.30;;;20.30;70.00;;;;;;4966051;29;20038;-76
2023/03/26 11:50:26;;;;;;;1.98;0.30;;;21.00;69.80;;;;;;4950135;29;20066;-76
2023/03/26 11:53:10;;;;;;;0.75;0.20;;;22.00;65.70;;;;;;4957676;28;20036;-79
2023/03/26 11:56:03;;;;;;;1.40;0.20;;;22.50;64.90;;;;;;4957394;29;20095;-78
2023/03/26 11:58:50;;;;;;;0.75;0.17;;;22.00;63.90;;;;;;4946295;29;20043;-76
2023/03/26 12:01:42;;;;;;;2.38;0.50;;;21.60;62.60;;;;;;4975851;28;20031;-75
2023/03/26 12:04:14;;;;;;;1.27;0.40;;;21.20;63.60;;;;;;4965868;29;20054;-77
2023/03/26 12:06:58;;;;;;;2.03;0.40;;;21.40;62.40;;;;;;4966294;29;20062;-76
2023/03/26 12:09:25;;;;;;;1.55;0.47;;;20.80;63.00;;;;;;4946299;29;20038;-74
2023/03/26 12:11:59;;;;;;;1.85;0.30;;;20.70;62.00;;;;;;4955142;29;20061;-77
2023/03/26 12:14:29;;;;;;;2.55;0.40;;;20.30;62.20;;;;;;4966383;29;20035;-77
2023/03/26 12:17:11;;;;;;;1.27;0.20;;;20.80;62.30;;;;;;4965814;29;20020;-78
2023/03/26 12:19:43;;;;;;;0.88;0.20;;;21.20;60.80;;;;;;4965349;29;20159;-78
2023/03/26 12:22:37;;;;;;;2.17;0.30;;;20.30;68.00;;;;;;4949045;29;20329;-78
2023/03/26 12:25:20;;;;;;;2.67;0.50;;;18.50;73.10;;;;;;4941083;29;20213;-77
2023/03/26 12:27:56;;;;;;;1.42;0.30;;;17.50;76.60;;;;;;4957548;29;20019;-76
2023/03/26 12:30:29;;;;;;;1.58;0.40;;;17.50;78.80;;;;;;4935894;28;20036;-76
2023/03/26 12:33:07;;;;;;;3.13;0.30;;;18.60;76.30;;;;;;4954145;29;20036;-77
2023/03/26 12:35:34;;;;;;;1.10;0.25;;;20.10;71.90;;;;;;4966153;29;20066;-78
2023/03/26 12:38:22;;;;;;;2.17;0.52;;;20.20;71.50;;;;;;4948124;29;20035;-76
2023/03/26 12:40:48;;;;;;;1.93;0.20;;;20.50;69.70;;;;;;4958982;29;20070;-76
2023/03/26 12:43:21;;;;;;;2.13;0.50;;;19.70;71.50;;;;;;4946183;29;20447;-75
2023/03/26 12:45:53;;;;;;;2.15;0.38;;;18.80;72.30;;;;;;4965693;29;20044;-79
2023/03/26 12:48:19;;;;;;;1.50;0.30;;;18.20;74.40;;;;;;4966074;29;20106;-76
2023/03/26 12:51:02;;;;;;;1.73;0.40;;;17.50;78.00;;;;;;4965605;29;20031;-76
2023/03/26 12:53:50;;;;;;;1.88;0.30;;;16.50;83.70;;;;;;4965930;29;20199;-77
2023/03/26 12:56:42;;;;;;;3.85;0.50;;;15.80;85.00;;;;;;4947465;29;20220;-76
2023/03/26 12:59:26;;;;;;;1.67;0.50;;;15.80;86.40;;;;;;4963618;29;20035;-78
2023/03/26 13:02:04;;;;;;;2.03;0.45;;;16.60;83.70;;;;;;4935182;29;20119;-77
2023/03/26 13:05:03;;;;;;;2.30;0.60;;;17.70;78.70;;;;;;4963152;29;20023;-77
2023/03/26 13:07:54;;;;;;;2.80;0.40;;;18.30;79.10;;;;;;4965434;29;20039;-76
2023/03/26 13:10:29;;;;;;;2.55;0.45;;;20.80;73.90;;;;;;4952326;28;20032;-76
2023/03/26 13:13:21;;;;;;;2.83;0.50;;;22.70;69.60;;;;;;4962751;29;20139;-78
2023/03/26 13:15:55;;;;;;;2.63;0.50;;;23.30;67.80;;;;;;4960754;29;20366;-76
2023/03/26 13:18:55;;;;;;;2.05;0.40;;;23.90;65.70;;;;;;4963888;29;20038;-75
2023/03/26 13:21:27;;;;;;;2.58;0.40;;;25.50;63.60;;;;;;4964985;28;20076;-76
2023/03/26 13:24:01;;;;;;;2.53;0.88;;;25.00;61.20;;;;;;4964696;29;20217;-76
2023/03/26 13:26:46;;;;;;;1.67;0.43;;;24.00;62.40;;;;;;4938873;29;20028;-75
2023/03/26 13:29:27;;;;;;;2.35;0.60;;;22.70;64.20;;;;;;4964415;29;20035;-76
2023/03/26 13:32:37;;;;;;;1.50;0.30;;;20.80;66.40;;;;;;4961196;29;20031;-76
2023/03/26 13:35:35;;;;;;;2.05;0.63;;;20.00;68.50;;;;;;4888074;29;20041;-76
2023/03/26 13:38:28;;;;;;;2.83;0.60;;;19.60;70.10;;;;;;4942255;29;20035;-76
2023/03/26 13:41:08;;;;;;;2.47;0.47;;;19.60;69.70;;;;;;4957617;29;20054;-76
2023/03/26 13:43:36;;;;;;;3.72;0.57;;;19.30;70.00;;;;;;4963572;29;20217;-77
2023/03/26 13:46:05;;;;;;;;;;;19.00;68.20;;;;;;4964449;29;20163;-76
2023/03/26 13:48:37;;;;;;;;;;;18.30;70.30;;;;;;4964072;29;19937;-77
2023/03/26 13:51:22;;;;;;;4.25;0.75;;;18.00;72.50;;;;;;4964007;29;19906;-76
2023/03/26 13:54:00;;;;;;;2.22;0.55;;;17.90;73.90;;;;;;4964660;29;20055;-77
2023/03/26 13:56:33;;;;;;;3.60;0.55;;;17.80;72.40;;;;;;4960378;29;20043;-76
2023/03/26 13:59:15;;;;;;;2.95;0.60;;;17.60;73.20;;;;;;4956496;29;20035;-79
2023/03/26 14:01:50;;;;;;;3.65;0.60;;;17.50;75.00;;;;;;4961269;29;20202;-77
2023/03/26 14:04:32;;;;;;;2.90;0.80;;;17.40;74.50;;;;;;4958658;29;20046;-76
2023/03/26 14:07:09;;;;;;;3.70;0.60;;;17.50;74.40;;;;;;4946843;29;20263;-75
2023/03/26 14:09:38;;;;;;;3.72;0.68;;;17.10;73.40;;;;;;4945358;29;20042;-75
2023/03/26 14:12:37;;;;;;;3.67;0.60;;;17.00;73.70;;;;;;4963587;29;20082;-76
2023/03/26 14:15:16;;;;;;;2.25;0.63;;;17.00;74.50;;;;;;4962428;29;20037;-78
2023/03/26 14:17:52;;;;;;;1.55;0.35;;;17.00;74.80;;;;;;4960390;29;20040;-75
2023/03/26 14:20:21;;;;;;;2.00;0.40;;;16.80;75.30;;;;;;4954423;29;20023;-75
2023/03/26 14:22:55;;;;;;;;;;;16.60;74.70;;;;;;4964480;29;20068;-75
2023/03/26 14:25:40;;;;;;;2.92;0.40;;;16.10;75.90;;;;;;4964144;29;19913;-77
2023/03/26 14:28:35;;;;;;;2.90;0.57;;;15.80;76.60;;;;;;4963652;29;20047;-77
2023/03/26 14:31:27;;;;;;;2.67;0.30;;;15.40;77.30;;;;;;4948979;29;20340;-77
2023/03/26 14:34:01;;;;;;;1.23;0.20;;;14.70;75.90;;;;;;4960160;28;20313;-76
2023/03/26 14:36:51;;;;;;;2.13;0.20;;;13.80;79.70;;;;;;4970331;28;20082;-78
2023/03/26 14:39:34;;;;;;;0.95;0.15;;;12.90;82.60;;;;;;4952783;28;20175;-78
2023/03/26 14:42:25;;;;;;;2.42;0.52;;;12.20;86.70;;;;;;4969899;29;20066;-78
2023/03/26 14:45:20;;;;;;;2.20;0.47;;;11.70;92.20;;;;;;4952648;29;20115;-78
2023/03/26 14:47:56;;;;;;;1.70;0.30;;;10.70;96.60;;;;;;4951278;29;20094;-77
2023/03/26 14:50:30;;;;;;;1.10;0.20;;;9.80;99.90;;;;;;4960851;28;20050;-78
2023/03/26 14:52:59;;;;;;;2.22;0.50;;;9.40;99.90;;;;;;4962939;29;20043;-79
2023/03/26 14:55:52;;;;;;;2.47;0.63;;;9.20;99.90;;;;;;4961510;29;20019;-77
2023/03/26 14:58:49;;;;;;;1.08;0.30;;;9.10;99.90;;;;;;4950566;29;20030;-76
2023/03/26 15:01:39;;;;;;;1.17;0.30;;;9.10;99.90;;;;;;4958322;29;20332;-76
2023/03/26 15:04:27;;;;;;;1.77;0.45;;;9.10;99.90;;;;;;4976153;29;20081;-76
2023/03/26 15:07:29;;;;;;;1.77;0.27;;;9.30;99.90;;;;;;4969947;28;20039;-76
2023/03/26 15:10:34;;;;;;;1.77;0.38;;;9.50;99.90;;;;;;4962894;29;20050;-76
2023/03/26 15:13:09;;;;;;;2.75;0.57;;;9.60;99.90;;;;;;4963820;28;20102;-76
2023/03/26 15:15:40;;;;;;;2.47;0.40;;;9.70;99.90;;;;;;4962148;28;20217;-76
2023/03/26 15:18:25;;;;;;;1.58;0.30;;;9.70;99.90;;;;;;4969581;29;20373;-76
2023/03/26 15:21:12;;;;;;;2.25;0.30;;;9.80;99.90;;;;;;4969608;29;20042;-78
2023/03/26 15:24:15;;;;;;;2.58;0.45;;;9.90;99.90;;;;;;4969929;29;20138;-76
2023/03/26 15:27:02;;;;;;;1.88;0.30;;;9.90;99.90;;;;;;4968950;29;20305;-76
2023/03/26 15:29:59;;;;;;;1.03;0.20;;;9.90;99.90;;;;;;4969691;29;20090;-78
2023/03/26 15:32:51;;;;;;;1.50;0.20;;;9.80;99.90;;;;;;4969866;28;20037;-80
2023/03/26 15:35:25;;;;;;;1.55;0.30;;;9.70;99.90;;;;;;4969723;28;20039;-78
2023/03/26 15:38:19;;;;;;;1.23;0.30;;;9.60;99.90;;;;;;4971709;28;20082;-75
2023/03/26 15:41:23;;;;;;;1.40;0.20;;;9.40;99.90;;;;;;4969989;28;20400;-78
2023/03/26 15:43:58;;;;;;;1.20;0.20;;;9.30;99.90;;;;;;4970708;29;20037;-78
2023/03/26 15:46:55;;;;;;;2.28;0.20;;;9.10;99.90;;;;;;4951217;29;20110;-77
2023/03/26 15:49:34;;;;;;;0.77;0.17;;;9.00;99.90;;;;;;4950000;29;20035;-77
2023/03/26 15:52:19;;;;;;;0.50;0.10;;;8.90;99.90;;;;;;4967509;29;20027;-78
2023/03/26 15:55:13;;;;;;;1.08;0.20;;;8.80;99.90;;;;;;4950156;29;20027;-76
2023/03/26 15:57:45;;;;;;;1.70;0.20;;;8.70;99.90;;;;;;4950402;29;20035;-75
2023/03/26 16:00:29;;;;;;;1.05;0.10;;;8.60;99.90;;;;;;4966665;29;20133;-75
2023/03/26 16:03:38;;;;;;;1.15;0.20;;;8.60;99.90;;;;;;4965440;29;20051;-77
2023/03/26 16:06:26;;;;;;;0.93;0.20;;;8.60;99.90;;;;;;4964948;29;20057;-77
2023/03/26 16:08:52;;;;;;;;;;;8.60;99.90;;;;;;4965512;29;20078;-77
2023/03/26 16:11:42;;;;;;;1.55;0.20;;;8.70;99.90;;;;;;4950670;29;20089;-76
2023/03/26 16:14:17;;;;;;;0.22;0.10;;;8.70;99.90;;;;;;4951673;29;20055;-75
2023/03/26 16:17:16;;;;;;;0.93;0.20;;;8.80;99.90;;;;;;4964167;29;20039;-75
2023/03/26 16:19:58;;;;;;;1.58;0.95;;;8.90;99.90;;;;;;4943747;29;20054;-76
2023/03/26 16:22:53;;;;;;;0.88;0.40;;;9.20;99.90;;;;;;4964922;29;20039;-75
2023/03/26 16:25:29;;;;;;;0.77;0.20;;;9.50;99.90;;;;;;4960425;28;20173;-76
2023/03/26 16:28:33;;;;;;;0.50;0.10;;;9.70;99.90;;;;;;4963580;29;20027;-77
2023/03/26 16:31:17;;;;;;;1.88;0.30;;;9.60;99.90;;;;;;4965145;29;20171;-75
2023/03/26 16:33:55;;;;;;;2.60;0.30;;;9.50;99.90;;;;;;4964952;29;20361;-75
2023/03/26 16:36:36;;;;;;;2.13;0.38;;;9.30;99.90;;;;;;4964899;29;20046;-76
2023/03/26 16:39:06;;;;;;;0.63;0.28;;;9.10;99.90;;;;;;4964676;29;20065;-77
2023/03/26 16:41:38;;;;;;;0.50;0.10;;;9.10;99.90;;;;;;4964648;29;20066;-77
2023/03/26 16:44:16;;;;;;;0.70;0.10;;;9.00;99.90;;;;;;4963019;29;20031;-76
2023/03/26 16:46:53;;;;;;;0.88;0.20;;;8.90;99.90;;;;;;4965244;29;20035;-78
2023/03/26 16:49:45;;;;;;;0.90;0.30;;;8.80;99.90;;;;;;4964293;29;20220;-77
2023/03/26 16:52:25;;;;;;;0.60;0.20;;;8.80;99.90;;;;;;4962988;29;20100;-77
2023/03/26 16:55:20;;;;;;;0.90;0.20;;;8.80;99.90;;;;;;4964598;29;20042;-77
2023/03/26 16:58:07;;;;;;;1.48;0.30;;;8.70;99.90;;;;;;4926189;29;20047;-80
2023/03/26 17:00:48;;;;;;;1.50;0.30;;;8.70;99.90;;;;;;4963121;29;20310;-78
2023/03/26 17:03:42;;;;;;;1.25;0.40;;;8.60;99.90;;;;;;4909789;29;1094266;-78
2023/03/26 17:06:25;;;;;;;1.90;0.40;;;8.50;99.90;;;;;;4956181;29;20372;-77
2023/03/26 17:09:00;;;;;;;1.90;0.40;;;8.60;99.90;;;;;;4965285;29;20199;-77
2023/03/26 17:11:38;;;;;;;1.15;0.38;;;8.50;99.90;;;;;;4962640;29;20321;-78
2023/03/26 17:14:16;;;;;;;1.10;0.40;;;8.50;99.90;;;;;;4964866;29;20039;-78
2023/03/26 17:17:01;;;;;;;0.95;0.30;;;8.50;99.90;;;;;;4948207;29;20054;-77
2023/03/26 17:19:28;;;;;;;1.00;0.30;;;8.50;99.90;;;;;;4964498;29;20090;-78
2023/03/26 17:22:26;;;;;;;1.95;0.30;;;8.50;99.90;;;;;;4964958;29;20136;-75
2023/03/26 17:25:05;;;;;;;0.85;0.20;;;8.40;99.90;;;;;;4947440;29;20070;-75
2023/03/26 17:27:50;;;;;;;0.75;0.20;;;8.40;99.90;;;;;;4947566;29;20035;-74
2023/03/26 17:30:38;;;;;;;0.60;0.20;;;8.40;99.90;;;;;;4964186;29;20035;-77
2023/03/26 17:33:04;;;;;;;1.38;0.30;;;8.40;99.90;;;;;;4964825;29;20099;-75
2023/03/26 17:35:43;;;;;;;0.77;0.20;;;8.40;99.90;;;;;;4967025;29;20035;-75
2023/03/26 17:38:29;;;;;;;3.20;0.50;;;8.40;99.90;;;;;;4964005;29;20066;-75
2023/03/26 17:40:59;;;;;;;1.67;0.40;;;8.30;99.90;;;;;;4964276;29;20254;-76
2023/03/26 17:43:48;;;;;;;1.50;0.40;;;8.30;99.90;;;;;;4963948;29;20035;-78
2023/03/26 17:46:33;;;;;;;1.80;0.40;;;8.30;99.90;;;;;;4962725;29;20229;-76
2023/03/26 17:49:10;;;;;;;1.33;0.40;;;8.30;99.90;;;;;;4964461;29;20102;-75
2023/03/26 17:51:54;;;;;;;2.35;0.45;;;8.30;99.90;;;;;;4964381;29;20035;-76
2023/03/26 17:54:26;;;;;;;1.17;0.40;;;8.30;99.90;;;;;;4963939;29;20356;-76
2023/03/26 17:56:55;;;;;;;1.48;0.50;;;8.30;99.90;;;;;;4964435;29;20038;-77
2023/03/26 17:59:25;;;;;;;1.98;0.50;;;8.20;99.90;;;;;;4963760;29;20043;-76
2023/03/26 18:01:56;;;;;;;0.98;0.30;;;8.20;99.90;;;;;;4963935;29;20233;-76
2023/03/26 18:04:38;;;;;;;1.77;0.50;;;8.10;99.90;;;;;;4946676;29;20027;-75
2023/03/26 18:07:15;;;;;;;1.20;0.30;;;8.00;99.90;;;;;;4964554;29;20197;-74
2023/03/26 18:10:03;;;;;;;2.42;0.50;;;8.00;99.90;;;;;;4961496;28;20098;-74
2023/03/26 18:12:52;;;;;;;0.85;0.30;;;8.00;99.90;;;;;;4963537;29;20039;-76